sensor_id;sensor_type;location;lat;lon;timestamp;P1;durP1;ratioP1;P2;durP2;ratioP2
66298;SDS011;53098;47.658;8.578;2023-12-22T00:01:29;3.03;;;0.73;;
66298;SDS011;53098;47.658;8.578;2023-12-22T00:03:54;3.90;;;1.10;;
66298;SDS011;53098;47.658;8.578;2023-12-22T00:06:20;4.43;;;0.90;;
66298;SDS011;53098;47.658;8.578;2023-12-22T00:08:45;3.50;;;1.00;;
66298;SDS011;53098;47.658;8.578;2023-12-22T00:11:10;5.10;;;0.90;;
66298;SDS011;53098;47.658;8.578;2023-12-22T00:13:35;3.67;;;0.87;;
66298;SDS011;53098;47.658;8.578;2023-12-22T00:16:01;3.43;;;0.83;;
66298;SDS011;53098;47.658;8.578;2023-12-22T00:18:26;3.50;;;0.98;;
66298;SDS011;53098;47.658;8.578;2023-12-22T00:20:52;5.97;;;0.80;;
66298;SDS011;53098;47.658;8.578;2023-12-22T00:23:17;4.73;;;0.90;;
66298;SDS011;53098;47.658;8.578;2023-12-22T00:25:42;5.07;;;1.00;;
66298;SDS011;53098;47.658;8.578;2023-12-22T00:28:07;1.60;;;0.60;;
66298;SDS011;53098;47.658;8.578;2023-12-22T00:30:33;2.00;;;0.80;;
66298;SDS011;53098;47.658;8.578;2023-12-22T00:32:58;3.50;;;0.80;;
66298;SDS011;53098;47.658;8.578;2023-12-22T00:35:23;2.47;;;0.87;;
66298;SDS011;53098;47.658;8.578;2023-12-22T00:37:48;3.73;;;0.63;;
66298;SDS011;53098;47.658;8.578;2023-12-22T00:40:14;2.73;;;0.70;;
66298;SDS011;53098;47.658;8.578;2023-12-22T00:42:39;2.90;;;0.83;;
66298;SDS011;53098;47.658;8.578;2023-12-22T00:45:04;1.53;;;0.63;;
66298;SDS011;53098;47.658;8.578;2023-12-22T00:47:30;2.80;;;0.70;;
66298;SDS011;53098;47.658;8.578;2023-12-22T00:49:55;5.30;;;0.73;;
66298;SDS011;53098;47.658;8.578;2023-12-22T00:52:20;0.63;;;0.50;;
66298;SDS011;53098;47.658;8.578;2023-12-22T00:54:46;2.83;;;0.77;;
66298;SDS011;53098;47.658;8.578;2023-12-22T00:57:11;3.10;;;0.70;;
66298;SDS011;53098;47.658;8.578;2023-12-22T00:59:36;3.28;;;0.77;;
66298;SDS011;53098;47.658;8.578;2023-12-22T01:02:01;2.00;;;0.73;;
66298;SDS011;53098;47.658;8.578;2023-12-22T01:04:27;1.57;;;0.73;;
66298;SDS011;53098;47.658;8.578;2023-12-22T01:06:52;2.57;;;0.67;;
66298;SDS011;53098;47.658;8.578;2023-12-22T01:09:17;1.37;;;0.43;;
66298;SDS011;53098;47.658;8.578;2023-12-22T01:11:42;1.20;;;0.40;;
66298;SDS011;53098;47.658;8.578;2023-12-22T01:14:08;0.93;;;0.33;;
66298;SDS011;53098;47.658;8.578;2023-12-22T01:16:33;0.53;;;0.30;;
66298;SDS011;53098;47.658;8.578;2023-12-22T01:18:58;4.22;;;1.02;;
66298;SDS011;53098;47.658;8.578;2023-12-22T01:21:23;1.70;;;0.50;;
66298;SDS011;53098;47.658;8.578;2023-12-22T01:23:49;2.33;;;0.50;;
66298;SDS011;53098;47.658;8.578;2023-12-22T01:26:14;3.23;;;0.50;;
66298;SDS011;53098;47.658;8.578;2023-12-22T01:28:39;3.07;;;0.60;;
66298;SDS011;53098;47.658;8.578;2023-12-22T01:31:05;3.70;;;0.60;;
66298;SDS011;53098;47.658;8.578;2023-12-22T01:33:30;1.10;;;0.50;;
66298;SDS011;53098;47.658;8.578;2023-12-22T01:35:55;2.60;;;0.70;;
66298;SDS011;53098;47.658;8.578;2023-12-22T01:38:20;1.53;;;0.63;;
66298;SDS011;53098;47.658;8.578;2023-12-22T01:40:46;1.48;;;0.60;;
66298;SDS011;53098;47.658;8.578;2023-12-22T01:43:11;3.25;;;0.80;;
66298;SDS011;53098;47.658;8.578;2023-12-22T01:45:36;5.47;;;0.77;;
66298;SDS011;53098;47.658;8.578;2023-12-22T01:48:02;4.13;;;0.83;;
66298;SDS011;53098;47.658;8.578;2023-12-22T01:50:27;1.90;;;0.70;;
66298;SDS011;53098;47.658;8.578;2023-12-22T01:52:53;4.78;;;0.90;;
66298;SDS011;53098;47.658;8.578;2023-12-22T01:55:18;5.63;;;1.35;;
66298;SDS011;53098;47.658;8.578;2023-12-22T01:57:44;5.55;;;1.08;;
66298;SDS011;53098;47.658;8.578;2023-12-22T02:00:09;3.78;;;1.02;;
66298;SDS011;53098;47.658;8.578;2023-12-22T02:02:38;3.38;;;0.95;;
66298;SDS011;53098;47.658;8.578;2023-12-22T02:05:04;3.90;;;0.88;;
66298;SDS011;53098;47.658;8.578;2023-12-22T02:07:29;4.38;;;1.30;;
66298;SDS011;53098;47.658;8.578;2023-12-22T02:09:55;4.32;;;0.90;;
66298;SDS011;53098;47.658;8.578;2023-12-22T02:12:20;4.85;;;1.23;;
66298;SDS011;53098;47.658;8.578;2023-12-22T02:14:45;6.70;;;0.97;;
66298;SDS011;53098;47.658;8.578;2023-12-22T02:17:14;5.37;;;1.20;;
66298;SDS011;53098;47.658;8.578;2023-12-22T02:22:06;4.93;;;0.90;;
66298;SDS011;53098;47.658;8.578;2023-12-22T02:24:31;7.50;;;1.08;;
66298;SDS011;53098;47.658;8.578;2023-12-22T02:27:04;9.45;;;1.73;;
66298;SDS011;53098;47.658;8.578;2023-12-22T02:29:30;5.07;;;1.00;;
66298;SDS011;53098;47.658;8.578;2023-12-22T02:31:56;5.22;;;1.27;;
66298;SDS011;53098;47.658;8.578;2023-12-22T02:34:24;8.48;;;1.35;;
66298;SDS011;53098;47.658;8.578;2023-12-22T02:36:50;7.93;;;1.02;;
66298;SDS011;53098;47.658;8.578;2023-12-22T02:39:16;7.25;;;1.23;;
66298;SDS011;53098;47.658;8.578;2023-12-22T02:41:41;6.80;;;1.00;;
66298;SDS011;53098;47.658;8.578;2023-12-22T02:44:07;2.23;;;1.00;;
66298;SDS011;53098;47.658;8.578;2023-12-22T02:46:33;6.78;;;0.98;;
66298;SDS011;53098;47.658;8.578;2023-12-22T02:48:58;3.58;;;0.90;;
66298;SDS011;53098;47.658;8.578;2023-12-22T02:51:24;3.50;;;0.90;;
66298;SDS011;53098;47.658;8.578;2023-12-22T02:53:49;8.30;;;1.83;;
66298;SDS011;53098;47.658;8.578;2023-12-22T02:56:14;8.63;;;1.33;;
66298;SDS011;53098;47.658;8.578;2023-12-22T02:58:39;5.67;;;1.40;;
66298;SDS011;53098;47.658;8.578;2023-12-22T03:01:05;4.20;;;0.90;;
66298;SDS011;53098;47.658;8.578;2023-12-22T03:03:33;5.33;;;0.63;;
66298;SDS011;53098;47.658;8.578;2023-12-22T03:05:58;5.07;;;0.90;;
66298;SDS011;53098;47.658;8.578;2023-12-22T03:08:23;2.27;;;0.60;;
66298;SDS011;53098;47.658;8.578;2023-12-22T03:10:49;2.83;;;0.60;;
66298;SDS011;53098;47.658;8.578;2023-12-22T03:13:14;2.70;;;1.17;;
66298;SDS011;53098;47.658;8.578;2023-12-22T03:15:39;2.50;;;0.90;;
66298;SDS011;53098;47.658;8.578;2023-12-22T03:18:04;2.03;;;0.67;;
66298;SDS011;53098;47.658;8.578;2023-12-22T03:20:30;4.20;;;1.10;;
66298;SDS011;53098;47.658;8.578;2023-12-22T03:22:55;3.97;;;1.10;;
66298;SDS011;53098;47.658;8.578;2023-12-22T03:25:20;3.40;;;0.90;;
66298;SDS011;53098;47.658;8.578;2023-12-22T03:27:45;1.63;;;0.80;;
66298;SDS011;53098;47.658;8.578;2023-12-22T03:30:11;2.77;;;0.60;;
66298;SDS011;53098;47.658;8.578;2023-12-22T03:32:36;3.38;;;0.50;;
66298;SDS011;53098;47.658;8.578;2023-12-22T03:35:01;4.10;;;0.70;;
66298;SDS011;53098;47.658;8.578;2023-12-22T03:37:26;3.93;;;0.80;;
66298;SDS011;53098;47.658;8.578;2023-12-22T03:39:52;4.57;;;0.80;;
66298;SDS011;53098;47.658;8.578;2023-12-22T03:42:17;3.27;;;0.87;;
66298;SDS011;53098;47.658;8.578;2023-12-22T03:44:42;1.67;;;0.40;;
66298;SDS011;53098;47.658;8.578;2023-12-22T03:47:07;2.80;;;0.63;;
66298;SDS011;53098;47.658;8.578;2023-12-22T03:49:33;2.27;;;0.93;;
66298;SDS011;53098;47.658;8.578;2023-12-22T03:51:58;3.58;;;0.95;;
66298;SDS011;53098;47.658;8.578;2023-12-22T03:54:23;1.63;;;0.70;;
66298;SDS011;53098;47.658;8.578;2023-12-22T03:56:48;4.40;;;0.90;;
66298;SDS011;53098;47.658;8.578;2023-12-22T03:59:14;3.20;;;0.70;;
66298;SDS011;53098;47.658;8.578;2023-12-22T04:01:39;4.10;;;0.80;;
66298;SDS011;53098;47.658;8.578;2023-12-22T04:04:04;1.90;;;0.70;;
66298;SDS011;53098;47.658;8.578;2023-12-22T04:06:29;2.13;;;0.57;;
66298;SDS011;53098;47.658;8.578;2023-12-22T04:08:54;2.77;;;0.60;;
66298;SDS011;53098;47.658;8.578;2023-12-22T04:11:20;2.33;;;0.73;;
66298;SDS011;53098;47.658;8.578;2023-12-22T04:13:45;5.57;;;1.10;;
66298;SDS011;53098;47.658;8.578;2023-12-22T04:16:10;5.10;;;0.87;;
66298;SDS011;53098;47.658;8.578;2023-12-22T04:18:35;4.60;;;0.90;;
66298;SDS011;53098;47.658;8.578;2023-12-22T04:21:01;2.20;;;0.80;;
66298;SDS011;53098;47.658;8.578;2023-12-22T04:23:26;2.77;;;0.83;;
66298;SDS011;53098;47.658;8.578;2023-12-22T04:25:51;5.33;;;0.83;;
66298;SDS011;53098;47.658;8.578;2023-12-22T04:28:16;4.40;;;0.70;;
66298;SDS011;53098;47.658;8.578;2023-12-22T04:30:42;4.13;;;1.00;;
66298;SDS011;53098;47.658;8.578;2023-12-22T04:33:07;4.23;;;0.63;;
66298;SDS011;53098;47.658;8.578;2023-12-22T04:35:32;3.50;;;0.77;;
66298;SDS011;53098;47.658;8.578;2023-12-22T04:37:57;5.63;;;1.20;;
66298;SDS011;53098;47.658;8.578;2023-12-22T04:40:23;4.57;;;0.87;;
66298;SDS011;53098;47.658;8.578;2023-12-22T04:42:48;5.60;;;1.13;;
66298;SDS011;53098;47.658;8.578;2023-12-22T04:45:14;6.57;;;1.27;;
66298;SDS011;53098;47.658;8.578;2023-12-22T04:47:39;4.05;;;0.95;;
66298;SDS011;53098;47.658;8.578;2023-12-22T04:50:04;2.67;;;0.70;;
66298;SDS011;53098;47.658;8.578;2023-12-22T04:52:29;4.28;;;0.90;;
66298;SDS011;53098;47.658;8.578;2023-12-22T04:54:55;0.30;;;0.30;;
66298;SDS011;53098;47.658;8.578;2023-12-22T04:57:20;3.13;;;0.63;;
66298;SDS011;53098;47.658;8.578;2023-12-22T04:59:45;1.70;;;0.70;;
66298;SDS011;53098;47.658;8.578;2023-12-22T05:02:10;4.20;;;0.80;;
66298;SDS011;53098;47.658;8.578;2023-12-22T05:04:36;2.93;;;1.07;;
66298;SDS011;53098;47.658;8.578;2023-12-22T05:07:01;3.03;;;0.60;;
66298;SDS011;53098;47.658;8.578;2023-12-22T05:09:26;1.63;;;0.40;;
66298;SDS011;53098;47.658;8.578;2023-12-22T05:11:52;5.03;;;1.10;;
66298;SDS011;53098;47.658;8.578;2023-12-22T05:14:17;1.70;;;0.70;;
66298;SDS011;53098;47.658;8.578;2023-12-22T05:16:42;5.07;;;1.00;;
66298;SDS011;53098;47.658;8.578;2023-12-22T05:19:07;7.17;;;0.93;;
66298;SDS011;53098;47.658;8.578;2023-12-22T05:21:32;7.77;;;1.20;;
66298;SDS011;53098;47.658;8.578;2023-12-22T05:23:58;4.23;;;0.90;;
66298;SDS011;53098;47.658;8.578;2023-12-22T05:26:23;6.93;;;2.13;;
66298;SDS011;53098;47.658;8.578;2023-12-22T05:28:48;7.60;;;0.93;;
66298;SDS011;53098;47.658;8.578;2023-12-22T05:31:14;3.28;;;1.00;;
66298;SDS011;53098;47.658;8.578;2023-12-22T05:33:39;5.50;;;1.47;;
66298;SDS011;53098;47.658;8.578;2023-12-22T05:36:04;6.57;;;1.60;;
66298;SDS011;53098;47.658;8.578;2023-12-22T05:38:30;5.10;;;1.10;;
66298;SDS011;53098;47.658;8.578;2023-12-22T05:40:55;3.95;;;0.80;;
66298;SDS011;53098;47.658;8.578;2023-12-22T05:43:20;3.30;;;0.93;;
66298;SDS011;53098;47.658;8.578;2023-12-22T05:45:46;5.27;;;0.83;;
66298;SDS011;53098;47.658;8.578;2023-12-22T05:48:11;6.50;;;1.23;;
66298;SDS011;53098;47.658;8.578;2023-12-22T05:50:36;6.60;;;1.63;;
66298;SDS011;53098;47.658;8.578;2023-12-22T05:53:01;6.57;;;1.00;;
66298;SDS011;53098;47.658;8.578;2023-12-22T05:55:27;7.20;;;1.00;;
66298;SDS011;53098;47.658;8.578;2023-12-22T05:57:52;6.20;;;1.17;;
66298;SDS011;53098;47.658;8.578;2023-12-22T06:00:17;7.27;;;1.20;;
66298;SDS011;53098;47.658;8.578;2023-12-22T06:02:42;12.00;;;2.07;;
66298;SDS011;53098;47.658;8.578;2023-12-22T06:05:08;9.67;;;1.67;;
66298;SDS011;53098;47.658;8.578;2023-12-22T06:07:33;7.05;;;1.38;;
66298;SDS011;53098;47.658;8.578;2023-12-22T06:09:58;7.80;;;1.50;;
66298;SDS011;53098;47.658;8.578;2023-12-22T06:12:24;8.10;;;1.70;;
66298;SDS011;53098;47.658;8.578;2023-12-22T06:14:49;8.90;;;2.10;;
66298;SDS011;53098;47.658;8.578;2023-12-22T06:17:14;9.13;;;1.33;;
66298;SDS011;53098;47.658;8.578;2023-12-22T06:19:39;9.03;;;1.80;;
66298;SDS011;53098;47.658;8.578;2023-12-22T06:22:05;7.47;;;1.70;;
66298;SDS011;53098;47.658;8.578;2023-12-22T06:24:30;10.07;;;1.30;;
66298;SDS011;53098;47.658;8.578;2023-12-22T06:26:55;9.63;;;1.83;;
66298;SDS011;53098;47.658;8.578;2023-12-22T06:29:20;9.63;;;1.27;;
66298;SDS011;53098;47.658;8.578;2023-12-22T06:31:46;7.90;;;2.13;;
66298;SDS011;53098;47.658;8.578;2023-12-22T06:34:11;11.93;;;2.10;;
66298;SDS011;53098;47.658;8.578;2023-12-22T06:36:36;9.60;;;1.70;;
66298;SDS011;53098;47.658;8.578;2023-12-22T06:39:01;9.47;;;1.57;;
66298;SDS011;53098;47.658;8.578;2023-12-22T06:41:27;12.52;;;1.88;;
66298;SDS011;53098;47.658;8.578;2023-12-22T06:43:53;7.88;;;1.25;;
66298;SDS011;53098;47.658;8.578;2023-12-22T06:46:19;11.97;;;1.67;;
66298;SDS011;53098;47.658;8.578;2023-12-22T06:48:44;9.10;;;1.77;;
66298;SDS011;53098;47.658;8.578;2023-12-22T06:51:19;10.15;;;1.58;;
66298;SDS011;53098;47.658;8.578;2023-12-22T06:53:45;9.43;;;2.15;;
66298;SDS011;53098;47.658;8.578;2023-12-22T06:56:17;8.50;;;1.67;;
66298;SDS011;53098;47.658;8.578;2023-12-22T06:58:42;6.70;;;1.35;;
66298;SDS011;53098;47.658;8.578;2023-12-22T07:01:08;8.13;;;1.77;;
66298;SDS011;53098;47.658;8.578;2023-12-22T07:03:33;9.93;;;1.93;;
66298;SDS011;53098;47.658;8.578;2023-12-22T07:05:58;10.80;;;2.30;;
66298;SDS011;53098;47.658;8.578;2023-12-22T07:08:23;8.80;;;1.50;;
66298;SDS011;53098;47.658;8.578;2023-12-22T07:10:49;10.43;;;1.63;;
66298;SDS011;53098;47.658;8.578;2023-12-22T07:13:14;14.73;;;2.57;;
66298;SDS011;53098;47.658;8.578;2023-12-22T07:15:39;8.07;;;1.57;;
66298;SDS011;53098;47.658;8.578;2023-12-22T07:18:04;9.53;;;1.97;;
66298;SDS011;53098;47.658;8.578;2023-12-22T07:20:30;11.50;;;1.70;;
66298;SDS011;53098;47.658;8.578;2023-12-22T07:22:55;12.57;;;1.97;;
66298;SDS011;53098;47.658;8.578;2023-12-22T07:25:20;7.27;;;2.07;;
66298;SDS011;53098;47.658;8.578;2023-12-22T07:27:45;8.53;;;1.53;;
66298;SDS011;53098;47.658;8.578;2023-12-22T07:30:11;7.23;;;1.80;;
66298;SDS011;53098;47.658;8.578;2023-12-22T07:32:36;8.02;;;1.48;;
66298;SDS011;53098;47.658;8.578;2023-12-22T07:35:02;7.07;;;1.53;;
66298;SDS011;53098;47.658;8.578;2023-12-22T07:37:27;12.23;;;1.90;;
66298;SDS011;53098;47.658;8.578;2023-12-22T07:39:52;12.30;;;1.73;;
66298;SDS011;53098;47.658;8.578;2023-12-22T07:42:17;8.30;;;1.93;;
66298;SDS011;53098;47.658;8.578;2023-12-22T07:44:43;10.70;;;2.20;;
66298;SDS011;53098;47.658;8.578;2023-12-22T07:47:08;9.53;;;1.73;;
66298;SDS011;53098;47.658;8.578;2023-12-22T07:49:33;8.43;;;1.77;;
66298;SDS011;53098;47.658;8.578;2023-12-22T07:51:58;10.17;;;2.37;;
66298;SDS011;53098;47.658;8.578;2023-12-22T07:54:24;10.70;;;2.43;;
66298;SDS011;53098;47.658;8.578;2023-12-22T07:56:49;12.43;;;1.77;;
66298;SDS011;53098;47.658;8.578;2023-12-22T07:59:14;7.53;;;2.30;;
66298;SDS011;53098;47.658;8.578;2023-12-22T08:01:40;10.20;;;1.80;;
66298;SDS011;53098;47.658;8.578;2023-12-22T08:04:05;11.83;;;1.73;;
66298;SDS011;53098;47.658;8.578;2023-12-22T08:06:30;5.33;;;1.50;;
66298;SDS011;53098;47.658;8.578;2023-12-22T08:08:55;6.55;;;1.50;;
66298;SDS011;53098;47.658;8.578;2023-12-22T08:11:21;12.33;;;1.97;;
66298;SDS011;53098;47.658;8.578;2023-12-22T08:13:47;8.03;;;1.40;;
66298;SDS011;53098;47.658;8.578;2023-12-22T08:16:12;8.02;;;2.03;;
66298;SDS011;53098;47.658;8.578;2023-12-22T08:18:37;11.27;;;2.13;;
66298;SDS011;53098;47.658;8.578;2023-12-22T08:21:02;11.80;;;2.70;;
66298;SDS011;53098;47.658;8.578;2023-12-22T08:23:28;8.38;;;1.83;;
66298;SDS011;53098;47.658;8.578;2023-12-22T08:25:53;12.03;;;1.80;;
66298;SDS011;53098;47.658;8.578;2023-12-22T08:28:18;11.60;;;1.87;;
66298;SDS011;53098;47.658;8.578;2023-12-22T08:30:43;9.53;;;1.80;;
66298;SDS011;53098;47.658;8.578;2023-12-22T08:33:09;13.23;;;3.43;;
66298;SDS011;53098;47.658;8.578;2023-12-22T08:35:34;10.60;;;1.70;;
66298;SDS011;53098;47.658;8.578;2023-12-22T08:37:59;9.87;;;1.97;;
66298;SDS011;53098;47.658;8.578;2023-12-22T08:40:25;13.43;;;1.97;;
66298;SDS011;53098;47.658;8.578;2023-12-22T08:42:50;13.90;;;1.63;;
66298;SDS011;53098;47.658;8.578;2023-12-22T08:45:15;9.07;;;1.67;;
66298;SDS011;53098;47.658;8.578;2023-12-22T08:47:40;7.95;;;1.67;;
66298;SDS011;53098;47.658;8.578;2023-12-22T08:50:06;7.37;;;1.20;;
66298;SDS011;53098;47.658;8.578;2023-12-22T08:52:31;12.63;;;1.92;;
66298;SDS011;53098;47.658;8.578;2023-12-22T08:54:57;6.95;;;1.65;;
66298;SDS011;53098;47.658;8.578;2023-12-22T08:57:22;6.83;;;1.70;;
66298;SDS011;53098;47.658;8.578;2023-12-22T08:59:48;8.35;;;1.77;;
66298;SDS011;53098;47.658;8.578;2023-12-22T09:02:13;16.77;;;1.87;;
66298;SDS011;53098;47.658;8.578;2023-12-22T09:04:38;10.07;;;2.00;;
66298;SDS011;53098;47.658;8.578;2023-12-22T09:07:03;9.30;;;1.60;;
66298;SDS011;53098;47.658;8.578;2023-12-22T09:09:29;14.93;;;2.10;;
66298;SDS011;53098;47.658;8.578;2023-12-22T09:11:54;11.80;;;2.50;;
66298;SDS011;53098;47.658;8.578;2023-12-22T09:14:19;10.07;;;1.90;;
66298;SDS011;53098;47.658;8.578;2023-12-22T09:16:44;15.23;;;2.10;;
66298;SDS011;53098;47.658;8.578;2023-12-22T09:19:10;15.53;;;2.03;;
66298;SDS011;53098;47.658;8.578;2023-12-22T09:21:35;11.73;;;1.93;;
66298;SDS011;53098;47.658;8.578;2023-12-22T09:24:00;17.77;;;2.90;;
66298;SDS011;53098;47.658;8.578;2023-12-22T09:26:25;11.63;;;2.30;;
66298;SDS011;53098;47.658;8.578;2023-12-22T09:28:51;12.17;;;1.97;;
66298;SDS011;53098;47.658;8.578;2023-12-22T09:31:16;10.67;;;2.40;;
66298;SDS011;53098;47.658;8.578;2023-12-22T09:33:42;14.67;;;2.40;;
66298;SDS011;53098;47.658;8.578;2023-12-22T09:36:08;16.25;;;2.30;;
66298;SDS011;53098;47.658;8.578;2023-12-22T09:38:33;14.38;;;2.03;;
66298;SDS011;53098;47.658;8.578;2023-12-22T09:40:58;16.03;;;2.53;;
66298;SDS011;53098;47.658;8.578;2023-12-22T09:43:25;16.65;;;2.28;;
66298;SDS011;53098;47.658;8.578;2023-12-22T09:45:50;11.03;;;1.57;;
66298;SDS011;53098;47.658;8.578;2023-12-22T09:48:20;13.02;;;2.17;;
66298;SDS011;53098;47.658;8.578;2023-12-22T09:50:46;11.95;;;2.40;;
66298;SDS011;53098;47.658;8.578;2023-12-22T09:53:14;16.30;;;2.40;;
66298;SDS011;53098;47.658;8.578;2023-12-22T09:55:42;12.25;;;2.10;;
66298;SDS011;53098;47.658;8.578;2023-12-22T09:58:08;11.77;;;2.10;;
66298;SDS011;53098;47.658;8.578;2023-12-22T10:00:33;10.95;;;2.47;;
66298;SDS011;53098;47.658;8.578;2023-12-22T10:03:00;14.93;;;2.70;;
66298;SDS011;53098;47.658;8.578;2023-12-22T10:05:25;10.35;;;2.08;;
66298;SDS011;53098;47.658;8.578;2023-12-22T10:07:51;15.07;;;2.70;;
66298;SDS011;53098;47.658;8.578;2023-12-22T10:10:16;8.87;;;2.17;;
66298;SDS011;53098;47.658;8.578;2023-12-22T10:12:42;7.22;;;1.50;;
66298;SDS011;53098;47.658;8.578;2023-12-22T10:15:09;7.55;;;1.63;;
66298;SDS011;53098;47.658;8.578;2023-12-22T10:17:36;8.75;;;1.75;;
66298;SDS011;53098;47.658;8.578;2023-12-22T10:20:02;10.68;;;1.73;;
66298;SDS011;53098;47.658;8.578;2023-12-22T10:22:27;10.00;;;2.10;;
66298;SDS011;53098;47.658;8.578;2023-12-22T10:24:52;10.63;;;2.07;;
66298;SDS011;53098;47.658;8.578;2023-12-22T10:27:18;11.23;;;1.93;;
66298;SDS011;53098;47.658;8.578;2023-12-22T10:29:43;11.25;;;2.20;;
66298;SDS011;53098;47.658;8.578;2023-12-22T10:32:08;14.80;;;2.17;;
66298;SDS011;53098;47.658;8.578;2023-12-22T10:34:34;10.60;;;2.30;;
66298;SDS011;53098;47.658;8.578;2023-12-22T10:37:00;7.93;;;1.67;;
66298;SDS011;53098;47.658;8.578;2023-12-22T10:39:29;8.48;;;1.88;;
66298;SDS011;53098;47.658;8.578;2023-12-22T10:41:54;10.43;;;1.85;;
66298;SDS011;53098;47.658;8.578;2023-12-22T10:44:20;9.60;;;1.88;;
66298;SDS011;53098;47.658;8.578;2023-12-22T10:46:46;9.75;;;2.42;;
66298;SDS011;53098;47.658;8.578;2023-12-22T10:49:12;7.90;;;1.80;;
66298;SDS011;53098;47.658;8.578;2023-12-22T10:51:37;9.93;;;1.52;;
66298;SDS011;53098;47.658;8.578;2023-12-22T10:54:04;9.48;;;2.05;;
66298;SDS011;53098;47.658;8.578;2023-12-22T10:56:29;12.88;;;1.83;;
66298;SDS011;53098;47.658;8.578;2023-12-22T10:58:55;8.90;;;1.50;;
66298;SDS011;53098;47.658;8.578;2023-12-22T11:01:21;8.88;;;1.55;;
66298;SDS011;53098;47.658;8.578;2023-12-22T11:03:48;7.20;;;1.33;;
66298;SDS011;53098;47.658;8.578;2023-12-22T11:06:15;8.52;;;1.40;;
66298;SDS011;53098;47.658;8.578;2023-12-22T11:08:41;10.73;;;2.30;;
66298;SDS011;53098;47.658;8.578;2023-12-22T11:11:12;7.40;;;1.52;;
66298;SDS011;53098;47.658;8.578;2023-12-22T11:13:38;7.50;;;1.52;;
66298;SDS011;53098;47.658;8.578;2023-12-22T11:16:03;7.63;;;1.10;;
66298;SDS011;53098;47.658;8.578;2023-12-22T11:18:30;4.75;;;1.30;;
66298;SDS011;53098;47.658;8.578;2023-12-22T11:20:56;7.18;;;2.00;;
66298;SDS011;53098;47.658;8.578;2023-12-22T11:23:21;6.10;;;1.40;;
66298;SDS011;53098;47.658;8.578;2023-12-22T11:25:47;6.85;;;1.48;;
66298;SDS011;53098;47.658;8.578;2023-12-22T11:28:13;6.82;;;1.23;;
66298;SDS011;53098;47.658;8.578;2023-12-22T11:30:39;8.30;;;1.33;;
66298;SDS011;53098;47.658;8.578;2023-12-22T11:33:04;4.43;;;1.23;;
66298;SDS011;53098;47.658;8.578;2023-12-22T11:35:30;4.65;;;1.25;;
66298;SDS011;53098;47.658;8.578;2023-12-22T11:37:56;5.10;;;1.02;;
66298;SDS011;53098;47.658;8.578;2023-12-22T11:40:22;7.28;;;1.45;;
66298;SDS011;53098;47.658;8.578;2023-12-22T11:42:48;3.97;;;1.00;;
66298;SDS011;53098;47.658;8.578;2023-12-22T11:45:14;4.50;;;0.85;;
66298;SDS011;53098;47.658;8.578;2023-12-22T11:47:40;4.63;;;0.90;;
66298;SDS011;53098;47.658;8.578;2023-12-22T11:50:08;3.10;;;1.10;;
66298;SDS011;53098;47.658;8.578;2023-12-22T11:52:33;3.30;;;0.85;;
66298;SDS011;53098;47.658;8.578;2023-12-22T11:55:00;5.13;;;0.90;;
66298;SDS011;53098;47.658;8.578;2023-12-22T11:59:57;2.75;;;0.55;;
66298;SDS011;53098;47.658;8.578;2023-12-22T12:02:22;4.03;;;1.08;;
66298;SDS011;53098;47.658;8.578;2023-12-22T12:04:48;3.17;;;1.02;;
66298;SDS011;53098;47.658;8.578;2023-12-22T12:09:57;5.07;;;0.90;;
66298;SDS011;53098;47.658;8.578;2023-12-22T12:12:22;1.20;;;0.83;;
66298;SDS011;53098;47.658;8.578;2023-12-22T12:14:50;3.60;;;1.33;;
66298;SDS011;53098;47.658;8.578;2023-12-22T12:17:18;5.80;;;1.00;;
66298;SDS011;53098;47.658;8.578;2023-12-22T12:19:44;7.03;;;1.30;;
66298;SDS011;53098;47.658;8.578;2023-12-22T12:22:11;5.57;;;1.67;;
66298;SDS011;53098;47.658;8.578;2023-12-22T12:24:36;4.55;;;1.15;;
66298;SDS011;53098;47.658;8.578;2023-12-22T12:27:02;3.92;;;1.10;;
66298;SDS011;53098;47.658;8.578;2023-12-22T12:29:27;3.33;;;0.88;;
66298;SDS011;53098;47.658;8.578;2023-12-22T12:31:52;5.70;;;1.20;;
66298;SDS011;53098;47.658;8.578;2023-12-22T12:34:18;4.03;;;0.90;;
66298;SDS011;53098;47.658;8.578;2023-12-22T12:36:43;3.88;;;0.80;;
66298;SDS011;53098;47.658;8.578;2023-12-22T12:39:08;6.37;;;1.23;;
66298;SDS011;53098;47.658;8.578;2023-12-22T12:41:42;4.22;;;1.05;;
66298;SDS011;53098;47.658;8.578;2023-12-22T12:44:08;6.35;;;0.90;;
66298;SDS011;53098;47.658;8.578;2023-12-22T12:46:39;3.83;;;1.53;;
66298;SDS011;53098;47.658;8.578;2023-12-22T12:51:30;3.03;;;1.80;;
66298;SDS011;53098;47.658;8.578;2023-12-22T12:53:55;4.97;;;1.00;;
66298;SDS011;53098;47.658;8.578;2023-12-22T12:56:21;0.65;;;0.43;;
66298;SDS011;53098;47.658;8.578;2023-12-22T12:58:46;1.65;;;0.70;;
66298;SDS011;53098;47.658;8.578;2023-12-22T13:01:12;3.23;;;0.70;;
66298;SDS011;53098;47.658;8.578;2023-12-22T13:03:53;0.67;;;0.50;;
66298;SDS011;53098;47.658;8.578;2023-12-22T13:06:18;2.20;;;0.60;;
66298;SDS011;53098;47.658;8.578;2023-12-22T13:08:49;1.30;;;0.50;;
66298;SDS011;53098;47.658;8.578;2023-12-22T13:11:15;0.55;;;0.32;;
66298;SDS011;53098;47.658;8.578;2023-12-22T13:13:41;0.80;;;0.57;;
66298;SDS011;53098;47.658;8.578;2023-12-22T13:16:06;1.88;;;0.55;;
66298;SDS011;53098;47.658;8.578;2023-12-22T13:18:31;0.98;;;0.70;;
66298;SDS011;53098;47.658;8.578;2023-12-22T13:20:57;1.00;;;0.57;;
66298;SDS011;53098;47.658;8.578;2023-12-22T13:23:22;0.83;;;0.50;;
66298;SDS011;53098;47.658;8.578;2023-12-22T13:25:47;0.30;;;0.30;;
66298;SDS011;53098;47.658;8.578;2023-12-22T13:28:13;1.77;;;1.13;;
66298;SDS011;53098;47.658;8.578;2023-12-22T13:30:39;0.80;;;0.40;;
66298;SDS011;53098;47.658;8.578;2023-12-22T13:33:04;3.53;;;0.50;;
66298;SDS011;53098;47.658;8.578;2023-12-22T13:35:29;0.43;;;0.37;;
66298;SDS011;53098;47.658;8.578;2023-12-22T13:37:55;0.35;;;0.35;;
66298;SDS011;53098;47.658;8.578;2023-12-22T13:40:20;1.90;;;0.47;;
66298;SDS011;53098;47.658;8.578;2023-12-22T13:42:53;3.47;;;0.50;;
66298;SDS011;53098;47.658;8.578;2023-12-22T13:45:18;0.40;;;0.40;;
66298;SDS011;53098;47.658;8.578;2023-12-22T13:47:43;0.77;;;0.43;;
66298;SDS011;53098;47.658;8.578;2023-12-22T13:50:15;1.30;;;0.40;;
66298;SDS011;53098;47.658;8.578;2023-12-22T13:52:41;0.98;;;0.60;;
66298;SDS011;53098;47.658;8.578;2023-12-22T13:55:10;1.40;;;0.47;;
66298;SDS011;53098;47.658;8.578;2023-12-22T13:57:35;1.10;;;0.50;;
66298;SDS011;53098;47.658;8.578;2023-12-22T14:00:00;0.20;;;0.20;;
66298;SDS011;53098;47.658;8.578;2023-12-22T14:02:26;0.20;;;0.20;;
66298;SDS011;53098;47.658;8.578;2023-12-22T14:04:51;0.43;;;0.43;;
66298;SDS011;53098;47.658;8.578;2023-12-22T14:07:17;0.40;;;0.40;;
66298;SDS011;53098;47.658;8.578;2023-12-22T14:09:42;0.47;;;0.40;;
66298;SDS011;53098;47.658;8.578;2023-12-22T14:12:07;1.40;;;0.50;;
66298;SDS011;53098;47.658;8.578;2023-12-22T14:14:32;0.83;;;0.43;;
66298;SDS011;53098;47.658;8.578;2023-12-22T14:16:58;1.40;;;0.40;;
66298;SDS011;53098;47.658;8.578;2023-12-22T14:19:23;0.80;;;0.40;;
66298;SDS011;53098;47.658;8.578;2023-12-22T14:21:48;0.30;;;0.30;;
66298;SDS011;53098;47.658;8.578;2023-12-22T14:24:13;0.43;;;0.30;;
66298;SDS011;53098;47.658;8.578;2023-12-22T14:26:51;0.60;;;0.40;;
66298;SDS011;53098;47.658;8.578;2023-12-22T14:29:17;1.33;;;0.40;;
66298;SDS011;53098;47.658;8.578;2023-12-22T14:31:42;1.47;;;0.80;;
66298;SDS011;53098;47.658;8.578;2023-12-22T14:34:07;5.37;;;1.30;;
66298;SDS011;53098;47.658;8.578;2023-12-22T14:36:32;1.30;;;0.80;;
66298;SDS011;53098;47.658;8.578;2023-12-22T14:38:58;1.47;;;0.60;;
66298;SDS011;53098;47.658;8.578;2023-12-22T14:41:23;1.50;;;0.67;;
66298;SDS011;53098;47.658;8.578;2023-12-22T14:43:48;2.37;;;0.90;;
66298;SDS011;53098;47.658;8.578;2023-12-22T14:46:13;1.90;;;1.20;;